createdAt,value
2022-10-02T00:01:07.406Z,100.00
2022-10-02T00:04:17.389Z,100.00
2022-10-02T00:07:31.055Z,100.00
2022-10-02T00:10:44.925Z,100.00
2022-10-02T00:13:55.360Z,100.00
2022-10-02T00:17:03.891Z,100.00
2022-10-02T00:20:14.837Z,100.00
2022-10-02T00:23:26.706Z,100.00
2022-10-02T00:26:38.330Z,100.00
2022-10-02T00:29:51.195Z,100.00
2022-10-02T00:33:09.679Z,100.00
2022-10-02T00:36:27.808Z,100.00
2022-10-02T00:39:46.984Z,100.00
2022-10-02T00:43:06.681Z,100.00
2022-10-02T00:46:31.584Z,100.00
2022-10-02T00:49:59.335Z,100.00
2022-10-02T00:53:20.785Z,100.00
2022-10-02T00:56:35.355Z,100.00
2022-10-02T00:59:58.640Z,100.00
2022-10-02T01:03:19.426Z,100.00
2022-10-02T01:06:28.691Z,100.00
2022-10-02T01:09:35.899Z,100.00
2022-10-02T01:12:43.099Z,100.00
2022-10-02T01:15:54.727Z,100.00
2022-10-02T01:19:00.836Z,100.00
2022-10-02T01:22:18.761Z,100.00
2022-10-02T01:25:26.648Z,100.00
2022-10-02T01:28:33.103Z,100.00
2022-10-02T01:31:39.721Z,100.00
2022-10-02T01:34:47.247Z,100.00
2022-10-02T01:37:55.796Z,100.00
2022-10-02T01:41:03.753Z,100.00
2022-10-02T01:44:10.124Z,100.00
2022-10-02T01:47:20.122Z,100.00
2022-10-02T01:50:34.055Z,100.00
2022-10-02T01:53:47.493Z,100.00
2022-10-02T01:57:08.962Z,100.00
2022-10-02T02:00:18.953Z,100.00
2022-10-02T02:03:37.619Z,100.00
2022-10-02T02:06:52.928Z,100.00
2022-10-02T02:10:05.681Z,100.00
2022-10-02T02:13:17.807Z,100.00
2022-10-02T02:16:29.338Z,100.00
2022-10-02T02:19:40.703Z,100.00
2022-10-02T02:22:51.851Z,100.00
2022-10-02T02:26:04.152Z,100.00
2022-10-02T02:29:14.095Z,100.00
2022-10-02T02:32:25.718Z,100.00
2022-10-02T02:35:36.944Z,100.00
2022-10-02T02:38:48.067Z,100.00
2022-10-02T02:41:59.895Z,100.00
2022-10-02T02:45:13.908Z,100.00
2022-10-02T02:48:26.003Z,100.00
2022-10-02T02:51:37.591Z,100.00
2022-10-02T02:54:47.816Z,100.00
2022-10-02T02:57:58.046Z,100.00
2022-10-02T03:01:05.482Z,100.00
2022-10-02T03:04:14.094Z,100.00
2022-10-02T03:07:20.116Z,100.00
2022-10-02T03:10:46.858Z,100.00
2022-10-02T03:14:01.182Z,100.00
2022-10-02T03:17:18.315Z,100.00
2022-10-02T03:20:31.151Z,100.00
2022-10-02T03:23:51.522Z,100.00
2022-10-02T03:27:04.034Z,100.00
2022-10-02T03:30:12.916Z,100.00
2022-10-02T03:33:22.989Z,100.00
2022-10-02T03:36:29.842Z,100.00
2022-10-02T03:39:35.982Z,100.00
2022-10-02T03:42:43.297Z,100.00
2022-10-02T03:45:51.650Z,100.00
2022-10-02T03:48:59.894Z,100.00
2022-10-02T03:52:06.493Z,100.00
2022-10-02T03:55:22.968Z,100.00
2022-10-02T03:58:29.143Z,100.00
2022-10-02T04:01:43.456Z,100.00
2022-10-02T04:04:57.766Z,100.00
2022-10-02T04:08:10.687Z,100.00
2022-10-02T04:11:23.910Z,100.00
2022-10-02T04:14:36.674Z,100.00
2022-10-02T04:17:48.096Z,100.00
2022-10-02T04:21:01.416Z,100.00
2022-10-02T04:24:16.975Z,100.00
2022-10-02T04:27:33.864Z,100.00
2022-10-02T04:30:40.298Z,100.00
2022-10-02T04:33:46.685Z,100.00
2022-10-02T04:37:12.359Z,100.00
2022-10-02T04:40:31.261Z,100.00
2022-10-02T04:43:50.740Z,100.00
2022-10-02T04:47:12.832Z,99.17
2022-10-02T04:50:33.088Z,98.32
2022-10-02T04:53:54.637Z,97.50
2022-10-02T04:57:18.123Z,97.18
2022-10-02T05:00:26.975Z,96.72
2022-10-02T05:04:04.203Z,98.24
2022-10-02T05:07:23.038Z,95.22
2022-10-02T05:10:45.496Z,93.28
2022-10-02T05:14:06.427Z,88.65
2022-10-02T05:17:26.917Z,88.16
2022-10-02T05:20:53.619Z,91.16
2022-10-02T05:24:14.674Z,92.34
2022-10-02T05:27:50.379Z,91.43
2022-10-02T05:31:09.802Z,92.00
2022-10-02T05:34:33.617Z,91.39
2022-10-02T05:37:53.611Z,94.26
2022-10-02T05:41:05.043Z,92.95
2022-10-02T05:44:16.596Z,91.04
2022-10-02T05:47:31.529Z,88.50
2022-10-02T05:50:39.838Z,85.49
2022-10-02T05:53:49.021Z,84.68
2022-10-02T05:57:01.795Z,83.78
2022-10-02T06:00:21.075Z,80.41
2022-10-02T06:03:40.458Z,78.32
2022-10-02T06:06:51.628Z,74.84
2022-10-02T06:10:02.590Z,73.84
2022-10-02T06:13:14.422Z,72.79
2022-10-02T06:16:28.723Z,72.54
2022-10-02T06:19:40.223Z,70.78
2022-10-02T06:22:52.183Z,70.57
2022-10-02T06:26:02.603Z,71.26
2022-10-02T06:29:19.202Z,69.99
2022-10-02T06:32:36.542Z,70.46
2022-10-02T06:35:59.545Z,70.30
2022-10-02T06:39:22.908Z,66.52
2022-10-02T06:42:41.364Z,65.12
2022-10-02T06:45:58.610Z,66.18
2022-10-02T06:49:17.603Z,65.86
2022-10-02T06:52:37.262Z,64.38
2022-10-02T06:55:52.810Z,64.85
2022-10-02T06:59:13.399Z,64.29
2022-10-02T07:02:35.216Z,65.80
2022-10-02T07:06:00.417Z,66.79
2022-10-02T07:09:53.032Z,67.42
2022-10-02T07:13:15.917Z,65.97
2022-10-02T07:16:35.118Z,65.80
2022-10-02T07:19:53.903Z,65.13
2022-10-02T07:23:17.239Z,65.65
2022-10-02T07:26:49.715Z,66.08
2022-10-02T07:30:03.371Z,66.50
2022-10-02T07:33:29.149Z,65.62
2022-10-02T07:36:48.018Z,66.23
2022-10-02T07:40:14.014Z,64.59
2022-10-02T07:43:32.144Z,64.66
2022-10-02T07:46:49.846Z,64.17
2022-10-02T07:50:02.086Z,63.70
2022-10-02T07:53:18.989Z,64.05
2022-10-02T07:56:27.755Z,64.03
2022-10-02T07:59:36.964Z,64.13
2022-10-02T08:02:50.901Z,65.04
2022-10-02T08:05:59.246Z,63.57
2022-10-02T08:09:12.082Z,63.29
2022-10-02T08:12:34.175Z,62.87
2022-10-02T08:15:43.672Z,63.58
2022-10-02T08:18:55.908Z,62.68
2022-10-02T08:22:08.490Z,62.92
2022-10-02T08:25:22.026Z,62.73
2022-10-02T08:28:37.892Z,60.63
2022-10-02T08:31:44.236Z,62.51
2022-10-02T08:34:50.404Z,61.62
2022-10-02T08:38:14.186Z,60.29
2022-10-02T08:42:05.100Z,60.77
2022-10-02T08:45:47.872Z,61.48
2022-10-02T08:49:21.611Z,60.06
2022-10-02T08:52:48.191Z,59.49
2022-10-02T08:56:19.153Z,61.43
2022-10-02T09:00:01.815Z,60.48
2022-10-02T09:03:45.803Z,60.61
2022-10-02T09:07:28.285Z,58.77
2022-10-02T09:11:09.377Z,58.12
2022-10-02T09:14:59.062Z,56.46
2022-10-02T09:18:18.043Z,55.78
2022-10-02T09:21:46.619Z,55.29
2022-10-02T09:25:19.455Z,53.55
2022-10-02T09:29:09.743Z,50.63
2022-10-02T09:33:02.938Z,50.91
2022-10-02T09:36:57.479Z,52.99
2022-10-02T09:40:35.497Z,52.87
2022-10-02T09:44:23.834Z,52.19
2022-10-02T09:48:01.587Z,50.13
2022-10-02T09:51:49.160Z,48.55
2022-10-02T09:55:45.001Z,49.08
2022-10-02T09:59:30.468Z,49.07
2022-10-02T10:03:24.149Z,47.16
2022-10-02T10:07:16.291Z,47.07
2022-10-02T10:10:54.112Z,47.32
2022-10-02T10:14:48.286Z,47.95
2022-10-02T10:18:36.566Z,48.13
2022-10-02T10:22:10.625Z,48.67
2022-10-02T10:25:35.242Z,48.35
2022-10-02T10:29:09.207Z,48.83
2022-10-02T10:33:17.958Z,48.94
2022-10-02T10:37:09.590Z,48.87
2022-10-02T10:40:38.481Z,49.79
2022-10-02T10:44:14.784Z,50.42
2022-10-02T10:47:36.591Z,49.92
2022-10-02T10:51:05.951Z,48.65
2022-10-02T10:54:49.955Z,47.98
2022-10-02T10:58:15.026Z,47.49
2022-10-02T11:01:24.516Z,48.22
2022-10-02T11:05:00.768Z,47.40
2022-10-02T11:08:27.408Z,47.00
2022-10-02T11:11:44.867Z,46.75
2022-10-02T11:15:04.986Z,46.72
2022-10-02T11:18:43.017Z,46.90
2022-10-02T11:22:08.540Z,46.65
2022-10-02T11:25:29.774Z,47.28
2022-10-02T11:29:04.249Z,47.15
2022-10-02T11:32:46.799Z,47.33
2022-10-02T11:36:09.908Z,47.01
2022-10-02T11:39:20.955Z,46.97
2022-10-02T11:42:48.539Z,47.91
2022-10-02T11:46:12.156Z,46.77
2022-10-02T11:49:39.514Z,46.64
2022-10-02T11:53:22.384Z,45.46
2022-10-02T11:56:46.726Z,45.76
2022-10-02T12:00:13.553Z,46.00
2022-10-02T12:03:27.111Z,45.40
2022-10-02T12:06:49.401Z,45.28
2022-10-02T12:10:25.742Z,45.67
2022-10-02T12:13:50.136Z,46.03
2022-10-02T12:17:22.516Z,45.07
2022-10-02T12:21:08.226Z,46.15
2022-10-02T12:24:40.805Z,46.35
2022-10-02T12:27:58.502Z,45.60
2022-10-02T12:31:15.353Z,45.56
2022-10-02T12:34:40.549Z,44.91
2022-10-02T12:37:57.392Z,45.45
2022-10-02T12:41:13.392Z,45.37
2022-10-02T12:44:48.046Z,44.29
2022-10-02T12:48:12.367Z,43.88
2022-10-02T12:51:36.496Z,43.88
2022-10-02T12:55:33.570Z,44.16
2022-10-02T12:58:55.315Z,43.05
2022-10-02T13:02:56.119Z,43.40
2022-10-02T13:06:29.844Z,43.83
2022-10-02T13:09:53.068Z,45.09
2022-10-02T13:13:21.093Z,43.44
2022-10-02T13:16:35.769Z,43.41
2022-10-02T13:19:55.846Z,43.18
2022-10-02T13:23:16.914Z,42.71
2022-10-02T13:26:34.432Z,42.60
2022-10-02T13:29:58.831Z,43.08
2022-10-02T13:33:23.643Z,42.88
2022-10-02T13:36:38.653Z,43.18
2022-10-02T13:40:04.700Z,42.91
2022-10-02T13:43:30.428Z,43.47
2022-10-02T13:47:04.475Z,43.12
2022-10-02T13:50:25.914Z,43.67
2022-10-02T13:53:48.670Z,44.25
2022-10-02T13:57:03.723Z,43.79
2022-10-02T14:00:14.596Z,43.58
2022-10-02T14:03:35.328Z,44.11
2022-10-02T14:06:47.218Z,43.88
2022-10-02T14:10:05.064Z,44.39
2022-10-02T14:13:25.263Z,43.69
2022-10-02T14:16:48.291Z,43.79
2022-10-02T14:20:15.429Z,43.96
2022-10-02T14:23:42.227Z,44.60
2022-10-02T14:27:04.310Z,45.24
2022-10-02T14:30:17.929Z,46.76
2022-10-02T14:33:40.014Z,47.38
2022-10-02T14:36:55.899Z,48.51
2022-10-02T14:40:13.853Z,48.33
2022-10-02T14:43:43.495Z,47.80
2022-10-02T14:47:15.269Z,47.78
2022-10-02T14:50:53.749Z,47.25
2022-10-02T14:54:20.404Z,47.79
2022-10-02T14:57:40.799Z,47.69
2022-10-02T15:01:18.263Z,47.25
2022-10-02T15:04:42.947Z,47.61
2022-10-02T15:07:49.581Z,48.00
2022-10-02T15:10:55.670Z,49.31
2022-10-02T15:14:08.430Z,49.21
2022-10-02T15:17:42.304Z,49.10
2022-10-02T15:21:02.138Z,50.93
2022-10-02T15:24:29.297Z,51.90
2022-10-02T15:27:45.797Z,51.93
2022-10-02T15:30:58.937Z,51.59
2022-10-02T15:34:20.196Z,52.62
2022-10-02T15:37:29.407Z,52.51
2022-10-02T15:40:44.933Z,52.52
2022-10-02T15:44:03.298Z,53.54
2022-10-02T15:47:22.315Z,53.28
2022-10-02T15:50:39.759Z,53.43
2022-10-02T15:54:00.495Z,53.22
2022-10-02T15:57:41.383Z,53.62
2022-10-02T16:01:08.899Z,53.26
2022-10-02T16:04:26.472Z,54.38
2022-10-02T16:08:01.736Z,53.88
2022-10-02T16:11:34.921Z,53.66
2022-10-02T16:14:58.722Z,52.99
2022-10-02T16:18:25.812Z,52.86
2022-10-02T16:21:52.386Z,53.61
2022-10-02T16:25:24.750Z,53.11
2022-10-02T16:28:44.955Z,52.51
2022-10-02T16:32:10.599Z,52.95
2022-10-02T16:35:26.328Z,53.76
2022-10-02T16:38:48.510Z,53.85
2022-10-02T16:42:03.159Z,55.07
2022-10-02T16:45:36.904Z,54.98
2022-10-02T16:48:54.276Z,56.11
2022-10-02T16:52:07.815Z,55.98
2022-10-02T16:55:24.300Z,56.68
2022-10-02T16:58:41.495Z,56.79
2022-10-02T17:02:16.004Z,57.27
2022-10-02T17:05:27.749Z,57.59
2022-10-02T17:08:42.725Z,57.05
2022-10-02T17:11:56.559Z,57.38
2022-10-02T17:15:17.027Z,57.58
2022-10-02T17:18:34.031Z,57.35
2022-10-02T17:21:47.163Z,57.55
2022-10-02T17:25:06.011Z,57.49
2022-10-02T17:28:26.152Z,56.21
2022-10-02T17:31:48.086Z,54.64
2022-10-02T17:34:58.999Z,54.00
2022-10-02T17:38:44.827Z,54.66
2022-10-02T17:41:57.043Z,54.11
2022-10-02T17:45:19.409Z,53.04
2022-10-02T17:48:40.397Z,52.73
2022-10-02T17:51:54.205Z,51.82
2022-10-02T17:55:26.500Z,51.86
2022-10-02T17:58:39.339Z,52.07
2022-10-02T18:01:55.945Z,51.96
2022-10-02T18:05:29.479Z,52.53
2022-10-02T18:08:51.999Z,53.11
2022-10-02T18:12:27.415Z,53.00
2022-10-02T18:15:57.158Z,51.84
2022-10-02T18:19:29.219Z,51.96
2022-10-02T18:22:58.571Z,51.19
2022-10-02T18:26:19.520Z,51.10
2022-10-02T18:29:45.936Z,50.87
2022-10-02T18:33:32.453Z,52.30
2022-10-02T18:37:00.093Z,52.23
2022-10-02T18:40:20.034Z,52.45
2022-10-02T18:43:47.813Z,54.95
2022-10-02T18:47:07.836Z,59.03
2022-10-02T18:50:44.581Z,64.56
2022-10-02T18:54:18.701Z,70.83
2022-10-02T18:57:38.563Z,69.96
2022-10-02T19:01:06.878Z,70.87
2022-10-02T19:04:32.402Z,65.27
2022-10-02T19:07:43.283Z,69.60
2022-10-02T19:10:51.020Z,68.82
2022-10-02T19:14:02.179Z,71.12
2022-10-02T19:17:14.224Z,75.33
2022-10-02T19:20:42.002Z,74.74
2022-10-02T19:23:52.453Z,75.81
2022-10-02T19:27:02.495Z,78.17
2022-10-02T19:30:22.542Z,80.23
2022-10-02T19:33:41.377Z,81.33
2022-10-02T19:36:50.878Z,81.42
2022-10-02T19:40:00.477Z,85.22
2022-10-02T19:43:25.700Z,83.44
2022-10-02T19:46:37.299Z,85.59
2022-10-02T19:49:44.513Z,85.68
2022-10-02T19:52:55.077Z,86.67
2022-10-02T19:56:04.127Z,87.18
2022-10-02T19:59:17.435Z,89.42
2022-10-02T20:02:29.050Z,90.97
2022-10-02T20:05:36.965Z,88.85
2022-10-02T20:08:47.203Z,92.04
2022-10-02T20:11:58.846Z,89.48
2022-10-02T20:15:12.911Z,87.62
2022-10-02T20:18:21.552Z,91.82
2022-10-02T20:21:37.904Z,90.88
2022-10-02T20:24:52.272Z,93.78
2022-10-02T20:28:04.657Z,93.60
2022-10-02T20:31:18.932Z,95.25
2022-10-02T20:34:29.887Z,98.84
2022-10-02T20:37:37.167Z,100.00
2022-10-02T20:40:53.301Z,99.81
2022-10-02T20:44:06.257Z,99.75
2022-10-02T20:47:56.361Z,100.00
2022-10-02T20:51:06.120Z,100.00
2022-10-02T20:54:27.711Z,100.00
2022-10-02T20:58:02.334Z,100.00
2022-10-02T21:01:18.771Z,100.00
2022-10-02T21:05:05.739Z,100.00
2022-10-02T21:08:33.187Z,100.00
2022-10-02T21:12:04.173Z,100.00
2022-10-02T21:15:42.419Z,100.00
2022-10-02T21:19:24.933Z,100.00
2022-10-02T21:23:03.958Z,100.00
2022-10-02T21:26:44.229Z,100.00
2022-10-02T21:30:14.082Z,100.00
2022-10-02T21:33:23.588Z,100.00
2022-10-02T21:36:36.354Z,100.00
2022-10-02T21:40:23.369Z,100.00
2022-10-02T21:44:00.324Z,100.00
2022-10-02T21:47:34.907Z,100.00
2022-10-02T21:51:32.413Z,100.00
2022-10-02T21:55:15.224Z,100.00
2022-10-02T21:58:50.391Z,100.00
2022-10-02T22:02:26.027Z,100.00
2022-10-02T22:06:05.450Z,100.00
2022-10-02T22:09:26.849Z,100.00
2022-10-02T22:12:46.731Z,100.00
2022-10-02T22:16:09.196Z,100.00
2022-10-02T22:19:31.300Z,100.00
2022-10-02T22:22:56.072Z,100.00
2022-10-02T22:26:17.433Z,100.00
2022-10-02T22:29:36.326Z,100.00
2022-10-02T22:33:13.604Z,100.00
2022-10-02T22:36:42.359Z,100.00
2022-10-02T22:40:00.935Z,100.00
2022-10-02T22:43:10.491Z,100.00
2022-10-02T22:46:30.273Z,100.00
2022-10-02T22:49:44.475Z,100.00
2022-10-02T22:52:56.403Z,100.00
2022-10-02T22:56:02.501Z,100.00
2022-10-02T22:59:15.327Z,100.00
2022-10-02T23:02:27.422Z,100.00
2022-10-02T23:05:42.483Z,100.00
2022-10-02T23:08:56.370Z,100.00
2022-10-02T23:12:11.964Z,100.00
2022-10-02T23:15:31.309Z,100.00
2022-10-02T23:18:43.055Z,100.00
2022-10-02T23:21:54.751Z,100.00
2022-10-02T23:25:05.431Z,100.00
2022-10-02T23:28:19.126Z,100.00
2022-10-02T23:31:31.628Z,100.00
2022-10-02T23:34:44.117Z,100.00
2022-10-02T23:37:56.747Z,100.00
2022-10-02T23:41:27.767Z,100.00
2022-10-02T23:44:42.969Z,100.00
2022-10-02T23:47:59.290Z,100.00
2022-10-02T23:51:18.396Z,100.00
2022-10-02T23:54:43.387Z,100.00
2022-10-02T23:58:18.782Z,100.00
